createdAt,value
2018-11-06T00:00:59.416Z,8.58
2018-11-06T00:01:59.795Z,8.57
2018-11-06T00:02:59.556Z,8.59
2018-11-06T00:03:59.399Z,8.58
2018-11-06T00:04:59.382Z,8.59
2018-11-06T00:05:59.466Z,8.59
2018-11-06T00:06:59.449Z,8.58
2018-11-06T00:07:59.613Z,8.55
2018-11-06T00:09:00.461Z,8.58
2018-11-06T00:09:59.405Z,8.58
2018-11-06T00:10:59.467Z,8.57
2018-11-06T00:11:59.395Z,8.57
2018-11-06T00:12:59.608Z,8.57
2018-11-06T00:13:59.441Z,8.48
2018-11-06T00:14:59.360Z,8.49
2018-11-06T00:15:59.490Z,8.51
2018-11-06T00:16:59.451Z,8.49
2018-11-06T00:17:59.477Z,8.47
2018-11-06T00:18:59.674Z,8.47
2018-11-06T00:20:01.579Z,8.48
2018-11-06T00:20:59.438Z,8.45
2018-11-06T00:21:59.344Z,8.48
2018-11-06T00:23:00.465Z,8.48
2018-11-06T00:23:59.483Z,8.49
2018-11-06T00:24:59.533Z,8.45
2018-11-06T00:25:59.498Z,8.45
2018-11-06T00:26:59.374Z,8.45
2018-11-06T00:27:59.361Z,8.41
2018-11-06T00:28:59.552Z,8.34
2018-11-06T00:29:59.569Z,8.4
2018-11-06T00:30:59.485Z,8.4
2018-11-06T00:31:59.428Z,8.43
2018-11-06T00:32:59.524Z,8.41
2018-11-06T00:34:00.796Z,8.44
2018-11-06T00:34:59.453Z,8.45
2018-11-06T00:35:59.418Z,8.47
2018-11-06T00:36:59.549Z,8.45
2018-11-06T00:37:59.550Z,8.49
2018-11-06T00:39:00.590Z,8.45
2018-11-06T00:39:59.383Z,8.44
2018-11-06T00:40:59.754Z,8.47
2018-11-06T00:41:59.573Z,8.48
2018-11-06T00:42:59.404Z,8.45
2018-11-06T00:43:59.390Z,8.48
2018-11-06T00:44:59.571Z,8.47
2018-11-06T00:45:59.433Z,8.48
2018-11-06T00:46:59.424Z,8.47
2018-11-06T00:47:59.576Z,8.48
2018-11-06T00:48:59.489Z,8.51
2018-11-06T00:49:59.584Z,8.48
2018-11-06T00:50:59.532Z,8.48
2018-11-06T00:51:59.589Z,8.48
2018-11-06T00:52:59.447Z,8.51
2018-11-06T00:54:00.356Z,8.52
2018-11-06T00:54:59.471Z,8.52
2018-11-06T00:55:59.375Z,8.52
2018-11-06T00:56:59.516Z,8.54
2018-11-06T00:57:59.520Z,8.51
2018-11-06T00:58:59.397Z,8.47
2018-11-06T00:59:59.399Z,8.38
2018-11-06T01:00:59.316Z,8.24
2018-11-06T01:01:59.534Z,8.12
2018-11-06T01:02:59.472Z,8.09
2018-11-06T01:03:59.509Z,8.12
2018-11-06T01:04:59.435Z,8.08
2018-11-06T01:05:59.350Z,8.16
2018-11-06T01:06:59.472Z,8.2
2018-11-06T01:07:59.452Z,8.17
2018-11-06T01:08:59.325Z,8.23
2018-11-06T01:10:00.089Z,8.19
2018-11-06T01:10:59.357Z,7.98
2018-11-06T01:11:59.306Z,8.01
2018-11-06T01:12:59.362Z,8.03
2018-11-06T01:13:59.482Z,8.02
2018-11-06T01:14:59.462Z,8.09
2018-11-06T01:15:59.447Z,7.99
2018-11-06T01:16:59.367Z,7.95
2018-11-06T01:17:59.353Z,7.77
2018-11-06T01:18:59.311Z,7.58
2018-11-06T01:19:59.355Z,7.44
2018-11-06T01:20:59.476Z,7.55
2018-11-06T01:21:59.607Z,7.46
2018-11-06T01:22:59.371Z,7.46
2018-11-06T01:23:59.396Z,7.5
2018-11-06T01:24:59.479Z,7.47
2018-11-06T01:25:59.385Z,7.43
2018-11-06T01:26:59.790Z,7.36
2018-11-06T01:27:59.736Z,7.31
2018-11-06T01:28:59.364Z,7.33
2018-11-06T01:29:59.428Z,7.41
2018-11-06T01:30:59.285Z,7.47
2018-11-06T01:31:59.474Z,7.51
2018-11-06T01:32:59.286Z,7.57
2018-11-06T01:33:59.826Z,7.58
2018-11-06T01:34:59.362Z,7.64
2018-11-06T01:35:59.292Z,7.64
2018-11-06T01:36:59.232Z,7.69
2018-11-06T01:37:59.307Z,7.75
2018-11-06T01:38:59.357Z,7.78
2018-11-06T01:39:59.969Z,7.8
2018-11-06T01:40:59.224Z,7.81
2018-11-06T01:41:59.325Z,7.81
2018-11-06T01:42:59.253Z,7.84
2018-11-06T01:43:59.267Z,7.88
2018-11-06T01:44:59.344Z,7.89
2018-11-06T01:45:59.280Z,7.89
2018-11-06T01:46:59.244Z,7.89
2018-11-06T01:47:59.318Z,7.91
2018-11-06T01:48:59.224Z,7.93
2018-11-06T01:49:59.311Z,7.98
2018-11-06T01:50:59.328Z,7.99
2018-11-06T01:51:59.280Z,8.01
2018-11-06T01:52:59.299Z,8.05
2018-11-06T01:53:59.377Z,8.06
2018-11-06T01:54:59.308Z,8.08
2018-11-06T01:55:59.306Z,8.05
2018-11-06T01:56:59.278Z,8.03
2018-11-06T01:57:59.273Z,7.91
2018-11-06T01:58:59.588Z,7.71
2018-11-06T01:59:59.361Z,7.86
2018-11-06T02:00:59.410Z,7.89
2018-11-06T02:01:59.330Z,7.96
2018-11-06T02:02:59.635Z,7.99
2018-11-06T02:03:59.292Z,7.96
2018-11-06T02:04:59.284Z,7.99
2018-11-06T02:05:59.355Z,7.95
2018-11-06T02:06:59.260Z,7.91
2018-11-06T02:07:59.240Z,7.91
2018-11-06T02:08:59.267Z,7.89
2018-11-06T02:09:59.234Z,7.86
2018-11-06T02:10:59.297Z,7.89
2018-11-06T02:11:59.248Z,7.88
2018-11-06T02:12:59.448Z,7.86
2018-11-06T02:13:59.218Z,7.85
2018-11-06T02:14:59.220Z,7.84
2018-11-06T02:15:59.272Z,7.82
2018-11-06T02:16:59.522Z,7.81
2018-11-06T02:17:59.299Z,7.84
2018-11-06T02:18:59.370Z,7.72
2018-11-06T02:19:59.374Z,7.69
2018-11-06T02:20:59.415Z,7.72
2018-11-06T02:21:59.301Z,7.71
2018-11-06T02:22:59.263Z,7.74
2018-11-06T02:23:59.317Z,7.74
2018-11-06T02:24:59.358Z,7.8
2018-11-06T02:25:59.212Z,7.81
2018-11-06T02:26:59.294Z,7.82
2018-11-06T02:27:59.219Z,7.85
2018-11-06T02:28:59.181Z,7.88
2018-11-06T02:29:59.205Z,7.86
2018-11-06T02:31:00.159Z,7.92
2018-11-06T02:31:59.357Z,7.95
2018-11-06T02:32:59.213Z,7.95
2018-11-06T02:33:59.168Z,7.91
2018-11-06T02:34:59.468Z,7.91
2018-11-06T02:35:59.266Z,7.89
2018-11-06T02:36:59.219Z,7.86
2018-11-06T02:37:59.187Z,7.84
2018-11-06T02:38:59.232Z,7.85
2018-11-06T02:39:59.383Z,7.84
2018-11-06T02:40:59.607Z,7.84
2018-11-06T02:41:59.204Z,7.89
2018-11-06T02:42:59.311Z,7.89
2018-11-06T02:43:59.273Z,7.91
2018-11-06T02:44:59.225Z,7.88
2018-11-06T02:45:59.170Z,7.85
2018-11-06T02:46:59.368Z,7.81
2018-11-06T02:47:59.265Z,7.69
2018-11-06T02:48:59.280Z,7.78
2018-11-06T02:49:59.289Z,7.8
2018-11-06T02:50:59.284Z,7.86
2018-11-06T02:51:59.346Z,7.86
2018-11-06T02:52:59.353Z,7.81
2018-11-06T02:53:59.611Z,7.82
2018-11-06T02:54:59.349Z,7.82
2018-11-06T02:55:59.674Z,7.8
2018-11-06T02:56:59.189Z,7.81
2018-11-06T02:57:59.221Z,7.72
2018-11-06T02:58:59.265Z,7.75
2018-11-06T02:59:59.349Z,7.75
2018-11-06T03:00:59.640Z,7.75
2018-11-06T03:01:59.249Z,7.78
2018-11-06T03:02:59.333Z,7.78
2018-11-06T03:03:59.157Z,7.78
2018-11-06T03:04:59.659Z,7.78
2018-11-06T03:05:59.193Z,7.8
2018-11-06T03:06:59.348Z,7.81
2018-11-06T03:07:59.176Z,7.62
2018-11-06T03:08:59.250Z,7.58
2018-11-06T03:09:59.203Z,7.67
2018-11-06T03:10:59.472Z,7.71
2018-11-06T03:11:59.180Z,7.74
2018-11-06T03:12:59.276Z,7.77
2018-11-06T03:13:59.106Z,7.8
2018-11-06T03:14:59.173Z,7.89
2018-11-06T03:15:59.268Z,7.85
2018-11-06T03:16:59.605Z,7.89
2018-11-06T03:17:59.172Z,7.89
2018-11-06T03:18:59.149Z,7.84
2018-11-06T03:19:59.158Z,7.78
2018-11-06T03:20:59.107Z,7.75
2018-11-06T03:21:59.134Z,7.74
2018-11-06T03:22:59.116Z,7.67
2018-11-06T03:23:59.575Z,7.62
2018-11-06T03:24:59.124Z,7.65
2018-11-06T03:25:59.231Z,7.62
2018-11-06T03:26:59.578Z,7.62
2018-11-06T03:27:59.138Z,7.65
2018-11-06T03:28:59.166Z,7.68
2018-11-06T03:29:59.171Z,7.54
2018-11-06T03:30:59.134Z,7.55
2018-11-06T03:31:59.141Z,7.61
2018-11-06T03:32:59.420Z,7.53
2018-11-06T03:33:59.465Z,7.48
2018-11-06T03:34:59.221Z,7.44
2018-11-06T03:35:59.532Z,7.4
2018-11-06T03:36:59.157Z,7.31
2018-11-06T03:37:59.147Z,7.27
2018-11-06T03:38:59.205Z,7.29
2018-11-06T03:39:59.194Z,7.36
2018-11-06T03:40:59.127Z,7.4
2018-11-06T03:41:59.112Z,7.44
2018-11-06T03:42:59.162Z,7.53
2018-11-06T03:43:59.241Z,7.58
2018-11-06T03:44:59.172Z,7.61
2018-11-06T03:45:59.596Z,7.62
2018-11-06T03:46:59.290Z,7.57
2018-11-06T03:47:59.069Z,7.41
2018-11-06T03:48:59.541Z,7.43
2018-11-06T03:49:59.203Z,7.47
2018-11-06T03:50:59.265Z,7.47
2018-11-06T03:51:59.466Z,7.54
2018-11-06T03:52:59.339Z,7.59
2018-11-06T03:53:59.180Z,7.61
2018-11-06T03:54:59.099Z,7.57
2018-11-06T03:55:59.290Z,7.59
2018-11-06T03:56:59.102Z,7.61
2018-11-06T03:57:59.909Z,7.62
2018-11-06T03:58:59.141Z,7.59
2018-11-06T04:00:00.238Z,7.62
2018-11-06T04:00:59.181Z,7.67
2018-11-06T04:01:59.050Z,7.68
2018-11-06T04:02:59.944Z,7.69
2018-11-06T04:03:59.219Z,7.69
2018-11-06T04:04:59.114Z,7.71
2018-11-06T04:05:59.103Z,7.72
2018-11-06T04:06:59.370Z,7.75
2018-11-06T04:07:59.236Z,7.68
2018-11-06T04:08:59.075Z,7.65
2018-11-06T04:09:59.057Z,7.69
2018-11-06T04:10:59.178Z,7.77
2018-11-06T04:11:59.211Z,7.75
2018-11-06T04:12:59.167Z,7.77
2018-11-06T04:13:59.075Z,7.81
2018-11-06T04:14:59.215Z,7.69
2018-11-06T04:15:59.126Z,7.72
2018-11-06T04:16:59.477Z,7.67
2018-11-06T04:17:59.185Z,7.65
2018-11-06T04:18:59.136Z,7.67
2018-11-06T04:19:59.208Z,7.71
2018-11-06T04:20:59.023Z,7.72
2018-11-06T04:21:59.141Z,7.71
2018-11-06T04:22:59.066Z,7.74
2018-11-06T04:23:59.146Z,7.78
2018-11-06T04:24:59.264Z,7.78
2018-11-06T04:25:59.168Z,7.8
2018-11-06T04:26:59.019Z,7.8
2018-11-06T04:27:59.142Z,7.81
2018-11-06T04:28:59.067Z,7.85
2018-11-06T04:29:59.186Z,7.84
2018-11-06T04:30:59.110Z,7.8
2018-11-06T04:31:58.956Z,7.78
2018-11-06T04:32:59.201Z,7.59
2018-11-06T04:33:59.232Z,7.57
2018-11-06T04:34:59.215Z,7.4
2018-11-06T04:35:59.055Z,7.29
2018-11-06T04:36:59.049Z,7.31
2018-11-06T04:37:59.099Z,7.37
2018-11-06T04:38:59.026Z,7.44
2018-11-06T04:39:59.213Z,7.5
2018-11-06T04:40:59.148Z,7.54
2018-11-06T04:41:59.049Z,7.57
2018-11-06T04:42:59.208Z,7.55
2018-11-06T04:43:59.070Z,7.51
2018-11-06T04:44:59.131Z,7.54
2018-11-06T04:45:59.147Z,7.58
2018-11-06T04:46:58.990Z,7.61
2018-11-06T04:47:59.021Z,7.65
2018-11-06T04:48:59.182Z,7.69
2018-11-06T04:49:58.953Z,7.74
2018-11-06T04:50:59.366Z,7.71
2018-11-06T04:51:58.950Z,7.67
2018-11-06T04:52:58.994Z,7.65
2018-11-06T04:53:59.182Z,7.72
2018-11-06T04:54:58.993Z,7.64
2018-11-06T04:55:59.009Z,7.65
2018-11-06T04:56:58.980Z,7.68
2018-11-06T04:57:58.962Z,7.69
2018-11-06T04:58:58.977Z,7.58
2018-11-06T04:59:59.033Z,7.64
2018-11-06T05:00:59.054Z,7.64
2018-11-06T05:01:59.113Z,7.65
2018-11-06T05:02:58.963Z,7.65
2018-11-06T05:03:59.011Z,7.67
2018-11-06T05:04:59.138Z,7.69
2018-11-06T05:05:58.958Z,7.68
2018-11-06T05:06:59.763Z,7.71
2018-11-06T05:07:58.936Z,7.72
2018-11-06T05:08:59.343Z,7.71
2018-11-06T05:09:59.092Z,7.74
2018-11-06T05:10:59.017Z,7.77
2018-11-06T05:11:59.052Z,7.77
2018-11-06T05:12:58.938Z,7.8
2018-11-06T05:13:59.045Z,7.8
2018-11-06T05:14:58.919Z,7.82
2018-11-06T05:15:59.159Z,7.81
2018-11-06T05:16:59.139Z,7.82
2018-11-06T05:17:59.089Z,7.84
2018-11-06T05:18:59.034Z,7.84
2018-11-06T05:19:59.110Z,7.85
2018-11-06T05:20:58.944Z,7.84
2018-11-06T05:21:59.248Z,7.84
2018-11-06T05:22:58.978Z,7.84
2018-11-06T05:23:59.130Z,7.81
2018-11-06T05:24:58.959Z,7.84
2018-11-06T05:25:59.094Z,7.85
2018-11-06T05:26:59.166Z,7.85
2018-11-06T05:27:59.453Z,7.84
2018-11-06T05:28:59.076Z,7.85
2018-11-06T05:29:59.063Z,7.84
2018-11-06T05:30:58.978Z,7.84
2018-11-06T05:31:59.112Z,7.84
2018-11-06T05:32:59.480Z,7.84
2018-11-06T05:33:58.931Z,7.85
2018-11-06T05:34:59.383Z,7.82
2018-11-06T05:35:58.999Z,7.77
2018-11-06T05:36:59.016Z,7.74
2018-11-06T05:37:59.028Z,7.74
2018-11-06T05:38:59.268Z,7.72
2018-11-06T05:39:59.005Z,7.75
2018-11-06T05:40:58.993Z,7.72
2018-11-06T05:41:59.024Z,7.69
2018-11-06T05:42:58.957Z,7.69
2018-11-06T05:43:59.262Z,7.64
2018-11-06T05:44:58.993Z,7.65
2018-11-06T05:45:58.977Z,7.65
2018-11-06T05:46:59.082Z,7.67
2018-11-06T05:47:58.972Z,7.59
2018-11-06T05:48:58.854Z,7.57
2018-11-06T05:49:59.082Z,7.57
2018-11-06T05:50:58.962Z,7.59
2018-11-06T05:51:58.918Z,7.62
2018-11-06T05:52:59.118Z,7.55
2018-11-06T05:53:59.088Z,7.55
2018-11-06T05:54:58.896Z,7.55
2018-11-06T05:55:59.070Z,7.48
2018-11-06T05:56:58.868Z,7.33
2018-11-06T05:57:59.195Z,7.36
2018-11-06T05:58:58.985Z,7.31
2018-11-06T05:59:58.866Z,7.27
2018-11-06T06:00:59.141Z,7.26
2018-11-06T06:01:58.948Z,7.19
2018-11-06T06:02:58.930Z,7.23
2018-11-06T06:03:58.899Z,7.36
2018-11-06T06:04:59.012Z,7.26
2018-11-06T06:05:59.152Z,7.29
2018-11-06T06:06:58.852Z,7.26
2018-11-06T06:07:58.844Z,7.24
2018-11-06T06:08:59.170Z,7.31
2018-11-06T06:09:59.030Z,7.4
2018-11-06T06:10:59.214Z,7.47
2018-11-06T06:11:58.873Z,7.47
2018-11-06T06:12:58.915Z,7.43
2018-11-06T06:13:59.081Z,7.29
2018-11-06T06:14:58.830Z,7.3
2018-11-06T06:15:58.838Z,7.31
2018-11-06T06:16:59.112Z,7.3
2018-11-06T06:17:58.985Z,7.36
2018-11-06T06:18:59.005Z,7.2
2018-11-06T06:19:59.033Z,7.03
2018-11-06T06:20:58.946Z,6.91
2018-11-06T06:21:58.997Z,7.06
2018-11-06T06:22:59.062Z,7.06
2018-11-06T06:23:59.581Z,7.15
2018-11-06T06:24:58.818Z,7.15
2018-11-06T06:25:58.840Z,7.02
2018-11-06T06:26:58.827Z,7.03
2018-11-06T06:27:58.925Z,7.02
2018-11-06T06:28:58.893Z,7.06
2018-11-06T06:29:59.001Z,7.09
2018-11-06T06:30:58.964Z,7.01
2018-11-06T06:31:58.842Z,7.03
2018-11-06T06:32:58.798Z,7.06
2018-11-06T06:33:59.158Z,7.12
2018-11-06T06:34:59.063Z,7.2
2018-11-06T06:35:58.972Z,7.24
2018-11-06T06:36:58.822Z,7.33
2018-11-06T06:37:58.919Z,7.3
2018-11-06T06:38:59.060Z,7.23
2018-11-06T06:39:59.067Z,7.27
2018-11-06T06:40:59.195Z,7.27
2018-11-06T06:41:58.787Z,7.24
2018-11-06T06:42:58.790Z,7.2
2018-11-06T06:43:58.864Z,7.26
2018-11-06T06:44:58.803Z,7.31
2018-11-06T06:45:59.213Z,7.37
2018-11-06T06:46:58.849Z,7.12
2018-11-06T06:47:59.022Z,7.13
2018-11-06T06:48:58.781Z,7.13
2018-11-06T06:49:58.955Z,7.02
2018-11-06T06:50:58.849Z,6.91
2018-11-06T06:51:59.018Z,6.92
2018-11-06T06:52:58.787Z,6.91
2018-11-06T06:53:59.114Z,6.8
2018-11-06T06:54:59.028Z,6.87
2018-11-06T06:55:58.939Z,6.81
2018-11-06T06:56:58.942Z,6.83
2018-11-06T06:57:59.085Z,6.91
2018-11-06T06:58:58.808Z,6.96
2018-11-06T06:59:58.815Z,6.99
2018-11-06T07:00:59.176Z,7.08
2018-11-06T07:01:59.126Z,7.09
2018-11-06T07:02:58.786Z,7.01
2018-11-06T07:03:58.834Z,6.96
2018-11-06T07:04:58.798Z,6.94
2018-11-06T07:05:58.773Z,6.91
2018-11-06T07:06:58.816Z,6.9
2018-11-06T07:07:58.768Z,6.87
2018-11-06T07:08:58.760Z,6.92
2018-11-06T07:09:58.932Z,6.96
2018-11-06T07:10:58.792Z,7.01
2018-11-06T07:11:58.748Z,6.94
2018-11-06T07:12:59.481Z,6.99
2018-11-06T07:13:58.835Z,7.01
2018-11-06T07:14:58.757Z,6.99
2018-11-06T07:15:58.934Z,7.11
2018-11-06T07:16:58.763Z,7.03
2018-11-06T07:17:58.792Z,7.03
2018-11-06T07:18:58.920Z,7.11
2018-11-06T07:19:58.941Z,7.08
2018-11-06T07:20:58.739Z,7.09
2018-11-06T07:21:58.776Z,7.16
2018-11-06T07:22:58.813Z,7.19
2018-11-06T07:23:58.717Z,7.15
2018-11-06T07:24:58.792Z,7.16
2018-11-06T07:25:58.727Z,7.18
2018-11-06T07:26:58.831Z,7.22
2018-11-06T07:27:58.823Z,7.22
2018-11-06T07:28:59.200Z,7.23
2018-11-06T07:29:59.037Z,7.26
2018-11-06T07:30:58.889Z,7.24
2018-11-06T07:31:58.701Z,7.27
2018-11-06T07:32:58.770Z,7.31
2018-11-06T07:33:58.741Z,7.37
2018-11-06T07:34:59.776Z,7.23
2018-11-06T07:35:59.574Z,7.19
2018-11-06T07:36:58.748Z,7.18
2018-11-06T07:37:59.087Z,7.05
2018-11-06T07:38:58.759Z,7.08
2018-11-06T07:39:58.904Z,7.09
2018-11-06T07:40:59.188Z,7.13
2018-11-06T07:41:58.781Z,7.18
2018-11-06T07:42:58.792Z,7.19
2018-11-06T07:43:58.749Z,7.22
2018-11-06T07:44:59.004Z,7.31
2018-11-06T07:45:58.831Z,7.34
2018-11-06T07:46:58.707Z,7.22
2018-11-06T07:47:58.818Z,7.22
2018-11-06T07:48:59.194Z,7.15
2018-11-06T07:49:59.432Z,7.18
2018-11-06T07:50:58.691Z,7.22
2018-11-06T07:51:58.661Z,7.29
2018-11-06T07:52:59.058Z,7.31
2018-11-06T07:53:59.056Z,7.29
2018-11-06T07:54:59.157Z,7.22
2018-11-06T07:55:59.091Z,7.24
2018-11-06T07:56:58.817Z,7.19
2018-11-06T07:57:59.094Z,7.15
2018-11-06T07:58:58.670Z,7.16
2018-11-06T07:59:59.098Z,7.22
2018-11-06T08:00:58.840Z,7.22
2018-11-06T08:01:58.722Z,7.09
2018-11-06T08:02:58.702Z,6.92
2018-11-06T08:03:58.806Z,6.9
2018-11-06T08:04:58.660Z,6.95
2018-11-06T08:05:58.800Z,7.01
2018-11-06T08:06:58.748Z,7.09
2018-11-06T08:07:59.241Z,7.11
2018-11-06T08:08:58.926Z,7.02
2018-11-06T08:09:58.761Z,7.09
2018-11-06T08:10:58.679Z,6.99
2018-11-06T08:11:58.670Z,7.06
2018-11-06T08:12:58.662Z,7.02
2018-11-06T08:13:58.685Z,7.03
2018-11-06T08:14:59.135Z,7.06
2018-11-06T08:15:58.696Z,7.09
2018-11-06T08:16:58.675Z,7.09
2018-11-06T08:17:58.977Z,7.09
2018-11-06T08:18:58.689Z,7.08
2018-11-06T08:19:58.691Z,7.09
2018-11-06T08:20:58.685Z,7.15
2018-11-06T08:21:58.675Z,7.15
2018-11-06T08:22:58.686Z,7.16
2018-11-06T08:23:58.889Z,7.19
2018-11-06T08:24:58.632Z,7.19
2018-11-06T08:25:58.973Z,7.22
2018-11-06T08:26:58.709Z,7.24
2018-11-06T08:27:58.769Z,7.27
2018-11-06T08:28:58.890Z,7.22
2018-11-06T08:29:59.006Z,7.22
2018-11-06T08:30:59.925Z,7.2
2018-11-06T08:32:01.025Z,7.22
2018-11-06T08:32:58.718Z,7.15
2018-11-06T08:33:58.788Z,7.13
2018-11-06T08:34:58.682Z,7.12
2018-11-06T08:35:58.633Z,7.13
2018-11-06T08:36:59.380Z,7.06
2018-11-06T08:37:58.674Z,7.11
2018-11-06T08:38:58.602Z,7.12
2018-11-06T08:39:58.684Z,7.15
2018-11-06T08:40:58.853Z,7.15
2018-11-06T08:41:58.670Z,7.16
2018-11-06T08:42:58.621Z,7.18
2018-11-06T08:43:58.637Z,7.16
2018-11-06T08:44:58.792Z,7.12
2018-11-06T08:45:58.839Z,7.19
2018-11-06T08:46:58.611Z,7.13
2018-11-06T08:47:59.160Z,7.12
2018-11-06T08:48:58.624Z,7.11
2018-11-06T08:49:58.661Z,7.15
2018-11-06T08:50:58.687Z,7.15
2018-11-06T08:51:58.645Z,7.13
2018-11-06T08:52:58.787Z,7.18
2018-11-06T08:53:58.661Z,7.18
2018-11-06T08:54:58.748Z,7.2
2018-11-06T08:55:58.673Z,7.19
2018-11-06T08:56:58.693Z,7.2
2018-11-06T08:57:58.639Z,7.18
2018-11-06T08:58:58.637Z,7.2
2018-11-06T08:59:58.796Z,7.18
2018-11-06T09:00:58.657Z,7.18
2018-11-06T09:01:58.613Z,7.18
2018-11-06T09:02:58.654Z,7.15
2018-11-06T09:03:58.830Z,7.11
2018-11-06T09:04:58.736Z,7.09
2018-11-06T09:05:58.698Z,7.09
2018-11-06T09:06:58.844Z,7.09
2018-11-06T09:07:58.687Z,7.09
2018-11-06T09:08:59.066Z,7.18
2018-11-06T09:09:58.881Z,7.12
2018-11-06T09:10:58.983Z,7.08
2018-11-06T09:11:58.976Z,6.99
2018-11-06T09:12:58.587Z,6.91
2018-11-06T09:13:58.780Z,6.96
2018-11-06T09:14:58.579Z,7.01
2018-11-06T09:15:58.658Z,7.03
2018-11-06T09:16:58.798Z,7.09
2018-11-06T09:17:58.734Z,7.08
2018-11-06T09:18:58.609Z,7.11
2018-11-06T09:19:58.570Z,7.03
2018-11-06T09:20:59.026Z,6.91
2018-11-06T09:21:58.654Z,6.88
2018-11-06T09:22:58.863Z,6.92
2018-11-06T09:23:58.565Z,6.94
2018-11-06T09:24:58.592Z,6.88
2018-11-06T09:25:58.615Z,6.87
2018-11-06T09:26:58.663Z,6.83
2018-11-06T09:27:58.819Z,6.84
2018-11-06T09:28:58.641Z,6.92
2018-11-06T09:29:58.649Z,6.91
2018-11-06T09:30:59.216Z,6.95
2018-11-06T09:31:58.945Z,7.02
2018-11-06T09:32:58.829Z,7.06
2018-11-06T09:33:58.672Z,7.05
2018-11-06T09:34:58.931Z,7.03
2018-11-06T09:35:58.696Z,7.06
2018-11-06T09:36:58.575Z,7.12
2018-11-06T09:37:58.538Z,7.11
2018-11-06T09:38:58.701Z,7.13
2018-11-06T09:39:58.566Z,7.08
2018-11-06T09:40:58.553Z,7.11
2018-11-06T09:41:58.541Z,7.12
2018-11-06T09:42:58.781Z,7.13
2018-11-06T09:43:58.544Z,7.05
2018-11-06T09:44:58.746Z,7.09
2018-11-06T09:45:58.807Z,7.11
2018-11-06T09:46:58.528Z,7.11
2018-11-06T09:47:58.497Z,7.15
2018-11-06T09:48:58.513Z,7.12
2018-11-06T09:49:58.541Z,7.11
2018-11-06T09:50:58.527Z,7.12
2018-11-06T09:51:58.828Z,7.11
2018-11-06T09:52:58.543Z,7.08
2018-11-06T09:53:58.551Z,7.13
2018-11-06T09:54:58.528Z,7.15
2018-11-06T09:55:58.508Z,7.18
2018-11-06T09:56:58.883Z,7.15
2018-11-06T09:57:58.589Z,7.2
2018-11-06T09:58:58.514Z,7.22
2018-11-06T09:59:58.604Z,7.19
2018-11-06T10:00:59.347Z,7.15
2018-11-06T10:01:58.571Z,7.09
2018-11-06T10:02:58.549Z,7.12
2018-11-06T10:03:58.813Z,7.13
2018-11-06T10:04:58.563Z,7.16
2018-11-06T10:05:58.933Z,7.11
2018-11-06T10:07:00.034Z,7.24
2018-11-06T10:07:58.699Z,7.23
2018-11-06T10:08:58.569Z,7.29
2018-11-06T10:09:58.496Z,7.34
2018-11-06T10:10:58.533Z,7.34
2018-11-06T10:11:58.687Z,7.29
2018-11-06T10:12:58.624Z,7.18
2018-11-06T10:13:58.541Z,7.15
2018-11-06T10:14:58.673Z,7.19
2018-11-06T10:15:58.468Z,7.18
2018-11-06T10:16:58.698Z,7.27
2018-11-06T10:17:58.520Z,7.37
2018-11-06T10:18:58.542Z,7.47
2018-11-06T10:19:58.827Z,7.48
2018-11-06T10:20:58.646Z,7.51
2018-11-06T10:21:58.625Z,7.55
2018-11-06T10:22:58.529Z,7.58
2018-11-06T10:23:58.857Z,7.64
2018-11-06T10:24:58.621Z,7.61
2018-11-06T10:25:58.705Z,7.54
2018-11-06T10:26:58.615Z,7.4
2018-11-06T10:27:58.460Z,7.4
2018-11-06T10:28:58.547Z,7.33
2018-11-06T10:29:58.489Z,7.27
2018-11-06T10:30:58.904Z,7.39
2018-11-06T10:31:58.510Z,7.3
2018-11-06T10:32:58.537Z,7.41
2018-11-06T10:33:58.478Z,7.43
2018-11-06T10:34:58.484Z,7.41
2018-11-06T10:35:58.571Z,7.57
2018-11-06T10:36:58.611Z,7.54
2018-11-06T10:37:58.621Z,7.55
2018-11-06T10:38:58.719Z,7.57
2018-11-06T10:39:58.683Z,7.57
2018-11-06T10:40:58.600Z,7.44
2018-11-06T10:41:58.501Z,7.48
2018-11-06T10:42:58.624Z,7.54
2018-11-06T10:43:58.477Z,7.61
2018-11-06T10:44:58.654Z,7.58
2018-11-06T10:45:58.493Z,7.58
2018-11-06T10:46:58.456Z,7.61
2018-11-06T10:47:58.434Z,7.65
2018-11-06T10:48:58.749Z,7.81
2018-11-06T10:49:58.490Z,7.86
2018-11-06T10:50:58.482Z,7.84
2018-11-06T10:51:58.613Z,7.82
2018-11-06T10:52:58.434Z,7.85
2018-11-06T10:53:58.490Z,7.81
2018-11-06T10:54:58.456Z,7.62
2018-11-06T10:55:58.579Z,7.64
2018-11-06T10:56:58.446Z,7.72
2018-11-06T10:57:58.637Z,7.65
2018-11-06T10:58:58.562Z,7.64
2018-11-06T10:59:58.454Z,7.65
2018-11-06T11:00:58.559Z,7.68
2018-11-06T11:01:58.473Z,7.71
2018-11-06T11:02:58.447Z,7.72
2018-11-06T11:03:58.594Z,7.69
2018-11-06T11:04:59.260Z,7.72
2018-11-06T11:05:58.461Z,7.77
2018-11-06T11:06:58.666Z,7.74
2018-11-06T11:07:58.418Z,7.8
2018-11-06T11:08:58.605Z,7.72
2018-11-06T11:09:58.558Z,7.69
2018-11-06T11:10:58.407Z,7.62
2018-11-06T11:11:58.509Z,7.67
2018-11-06T11:12:58.495Z,7.69
2018-11-06T11:13:58.416Z,7.59
2018-11-06T11:14:58.499Z,7.62
2018-11-06T11:15:58.418Z,7.62
2018-11-06T11:16:58.413Z,7.67
2018-11-06T11:17:58.421Z,7.65
2018-11-06T11:18:58.411Z,7.8
2018-11-06T11:19:58.553Z,7.74
2018-11-06T11:20:58.428Z,7.69
2018-11-06T11:21:58.427Z,7.69
2018-11-06T11:22:58.553Z,7.61
2018-11-06T11:23:58.401Z,7.65
2018-11-06T11:24:58.437Z,7.67
2018-11-06T11:25:58.409Z,7.72
2018-11-06T11:26:58.411Z,7.77
2018-11-06T11:27:58.435Z,7.81
2018-11-06T11:28:58.445Z,7.82
2018-11-06T11:29:58.437Z,7.78
2018-11-06T11:30:58.432Z,7.85
2018-11-06T11:31:58.790Z,7.85
2018-11-06T11:32:58.727Z,7.89
2018-11-06T11:33:58.632Z,7.86
2018-11-06T11:34:58.442Z,7.88
2018-11-06T11:35:58.376Z,7.89
2018-11-06T11:36:58.478Z,7.95
2018-11-06T11:37:58.426Z,7.91
2018-11-06T11:38:59.253Z,7.86
2018-11-06T11:39:58.384Z,7.89
2018-11-06T11:40:58.440Z,7.88
2018-11-06T11:41:58.380Z,7.96
2018-11-06T11:42:58.484Z,7.95
2018-11-06T11:43:58.410Z,7.99
2018-11-06T11:44:58.439Z,7.98
2018-11-06T11:45:58.863Z,8.01
2018-11-06T11:46:58.517Z,8.03
2018-11-06T11:47:58.809Z,8.06
2018-11-06T11:48:58.419Z,8.12
2018-11-06T11:49:58.514Z,8.17
2018-11-06T11:50:58.472Z,8.21
2018-11-06T11:51:58.458Z,8.21
2018-11-06T11:52:58.390Z,8.23
2018-11-06T11:53:58.404Z,8.27
2018-11-06T11:54:58.495Z,8.31
2018-11-06T11:55:58.446Z,8.34
2018-11-06T11:56:58.389Z,8.3
2018-11-06T11:57:58.354Z,8.31
2018-11-06T11:58:58.426Z,8.36
2018-11-06T11:59:58.517Z,8.29
2018-11-06T12:00:58.619Z,8.4
2018-11-06T12:01:58.482Z,8.37
2018-11-06T12:02:58.341Z,8.41
2018-11-06T12:03:58.741Z,8.38
2018-11-06T12:04:58.519Z,8.41
2018-11-06T12:05:58.489Z,8.36
2018-11-06T12:06:58.460Z,8.31
2018-11-06T12:07:58.398Z,8.38
2018-11-06T12:08:58.397Z,8.41
2018-11-06T12:09:58.384Z,8.36
2018-11-06T12:10:58.365Z,8.3
2018-11-06T12:11:58.364Z,8.34
2018-11-06T12:12:58.354Z,8.3
2018-11-06T12:13:58.373Z,8.37
2018-11-06T12:14:58.552Z,8.33
2018-11-06T12:15:58.572Z,8.31
2018-11-06T12:16:58.393Z,8.36
2018-11-06T12:17:58.421Z,8.27
2018-11-06T12:18:58.346Z,8.33
2018-11-06T12:19:58.480Z,8.36
2018-11-06T12:20:58.557Z,8.37
2018-11-06T12:21:58.522Z,8.44
2018-11-06T12:22:58.393Z,8.54
2018-11-06T12:23:58.549Z,8.57
2018-11-06T12:24:59.579Z,8.52
2018-11-06T12:25:58.454Z,8.38
2018-11-06T12:26:59.559Z,8.38
2018-11-06T12:27:58.305Z,8.37
2018-11-06T12:28:58.348Z,8.41
2018-11-06T12:29:58.724Z,8.36
2018-11-06T12:30:58.287Z,8.33
2018-11-06T12:31:58.436Z,8.34
2018-11-06T12:32:58.387Z,8.37
2018-11-06T12:33:58.726Z,8.38
2018-11-06T12:34:58.344Z,8.45
2018-11-06T12:35:58.556Z,8.52
2018-11-06T12:36:58.668Z,8.59
2018-11-06T12:37:58.331Z,8.71
2018-11-06T12:38:58.315Z,8.59
2018-11-06T12:39:58.351Z,8.64
2018-11-06T12:40:58.426Z,8.68
2018-11-06T12:41:58.344Z,8.72
2018-11-06T12:42:58.694Z,8.71
2018-11-06T12:43:58.333Z,8.71
2018-11-06T12:44:58.316Z,8.66
2018-11-06T12:45:58.328Z,8.68
2018-11-06T12:46:58.263Z,8.62
2018-11-06T12:47:58.295Z,8.65
2018-11-06T12:48:58.339Z,8.71
2018-11-06T12:49:58.263Z,8.69
2018-11-06T12:50:58.400Z,8.69
2018-11-06T12:51:58.267Z,8.74
2018-11-06T12:52:58.368Z,8.83
2018-11-06T12:53:58.543Z,8.72
2018-11-06T12:54:58.272Z,8.79
2018-11-06T12:55:58.499Z,8.85
2018-11-06T12:56:58.303Z,8.89
2018-11-06T12:57:58.345Z,8.89
2018-11-06T12:58:58.617Z,8.91
2018-11-06T12:59:58.276Z,8.93
2018-11-06T13:00:58.260Z,8.96
2018-11-06T13:01:58.345Z,9.04
2018-11-06T13:02:58.273Z,9
2018-11-06T13:03:58.357Z,8.99
2018-11-06T13:04:58.260Z,9.07
2018-11-06T13:05:58.293Z,9.1
2018-11-06T13:06:58.370Z,9.17
2018-11-06T13:08:14.186Z,9.16
2018-11-06T13:08:58.364Z,9.11
2018-11-06T13:09:58.602Z,9.13
2018-11-06T13:10:58.327Z,9.19
2018-11-06T13:11:58.244Z,9.21
2018-11-06T13:12:58.259Z,9.24
2018-11-06T13:13:58.316Z,9.23
2018-11-06T13:14:59.601Z,9.23
2018-11-06T13:15:58.925Z,9.21
2018-11-06T13:16:58.515Z,9.29
2018-11-06T13:17:58.435Z,9.27
2018-11-06T13:18:58.452Z,9.3
2018-11-06T13:19:58.268Z,9.33
2018-11-06T13:20:58.295Z,9.37